Litherland, United Kingdom
Current Conditions -  °F | °C
As of 2:50 PM on Thursday 30 Oct 2014 (Local Time) from EGGP Reporting Station
Rain Showers Rain Showers  
Wind Chill: 16°   Ceiling: 4300
Heat Index: 16°   Visibility: 6mi
Dew Point: 14°   Wind: 8mph
Humidity: 88%   Direction: 180°S
Pressure: 29.94"   Gusts: NA
Location:  53.47°N, 3°W
Report Text: EGGP 301450Z 18007KT 130V210 9999 VCSH FEW020 BKN043 16/14 Q1014
Loading
Personal Weather Stations






























Interactive Weather Map
Tropical Storm Tracking
New forecast layout! Learn more

10-Day Weather Forecast

Advertisements
Track Severe Weather on mobile